sensor_id;sensor_type;location;lat;lon;timestamp;P1;durP1;ratioP1;P2;durP2;ratioP2
16033;SDS011;8121;51.418;6.998;2022-07-03T00:09:22;14.00;;;1.90;;
16033;SDS011;8121;51.418;6.998;2022-07-03T00:19:25;7.40;;;2.93;;
16033;SDS011;8121;51.418;6.998;2022-07-03T00:29:35;2.40;;;1.53;;
16033;SDS011;8121;51.418;6.998;2022-07-03T00:39:40;1.30;;;1.20;;
16033;SDS011;8121;51.418;6.998;2022-07-03T00:49:43;4.70;;;1.83;;
16033;SDS011;8121;51.418;6.998;2022-07-03T00:59:48;3.27;;;2.00;;
16033;SDS011;8121;51.418;6.998;2022-07-03T01:09:52;7.70;;;1.20;;
16033;SDS011;8121;51.418;6.998;2022-07-03T01:20:01;5.60;;;1.77;;
16033;SDS011;8121;51.418;6.998;2022-07-03T01:30:06;2.60;;;1.20;;
16033;SDS011;8121;51.418;6.998;2022-07-03T01:40:10;2.23;;;1.80;;
16033;SDS011;8121;51.418;6.998;2022-07-03T01:50:14;5.80;;;1.70;;
16033;SDS011;8121;51.418;6.998;2022-07-03T02:00:17;2.90;;;1.27;;
16033;SDS011;8121;51.418;6.998;2022-07-03T02:10:23;1.30;;;1.20;;
16033;SDS011;8121;51.418;6.998;2022-07-03T02:20:29;3.17;;;1.57;;
16033;SDS011;8121;51.418;6.998;2022-07-03T02:30:39;1.73;;;1.30;;
16033;SDS011;8121;51.418;6.998;2022-07-03T02:40:50;1.97;;;1.67;;
16033;SDS011;8121;51.418;6.998;2022-07-03T02:50:58;1.97;;;1.20;;
16033;SDS011;8121;51.418;6.998;2022-07-03T03:01:06;7.63;;;1.70;;
16033;SDS011;8121;51.418;6.998;2022-07-03T03:11:13;8.53;;;1.43;;
16033;SDS011;8121;51.418;6.998;2022-07-03T03:21:23;3.93;;;1.53;;
16033;SDS011;8121;51.418;6.998;2022-07-03T03:31:29;8.27;;;2.30;;
16033;SDS011;8121;51.418;6.998;2022-07-03T03:41:30;6.10;;;1.20;;
16033;SDS011;8121;51.418;6.998;2022-07-03T03:51:33;2.43;;;1.10;;
16033;SDS011;8121;51.418;6.998;2022-07-03T04:01:35;2.20;;;1.30;;
16033;SDS011;8121;51.418;6.998;2022-07-03T04:11:38;4.70;;;1.67;;
16033;SDS011;8121;51.418;6.998;2022-07-03T04:21:39;2.47;;;1.10;;
16033;SDS011;8121;51.418;6.998;2022-07-03T04:31:42;1.30;;;1.13;;
16033;SDS011;8121;51.418;6.998;2022-07-03T04:41:43;2.27;;;1.20;;
16033;SDS011;8121;51.418;6.998;2022-07-03T04:51:46;1.83;;;1.30;;
16033;SDS011;8121;51.418;6.998;2022-07-03T05:01:48;6.00;;;1.67;;
16033;SDS011;8121;51.418;6.998;2022-07-03T05:11:51;2.93;;;1.50;;
16033;SDS011;8121;51.418;6.998;2022-07-03T05:21:52;2.07;;;1.80;;
16033;SDS011;8121;51.418;6.998;2022-07-03T05:31:56;6.80;;;2.47;;
16033;SDS011;8121;51.418;6.998;2022-07-03T05:41:57;15.70;;;2.67;;
16033;SDS011;8121;51.418;6.998;2022-07-03T05:52:00;4.63;;;3.10;;
16033;SDS011;8121;51.418;6.998;2022-07-03T06:02:02;2.87;;;2.43;;
16033;SDS011;8121;51.418;6.998;2022-07-03T06:12:06;5.70;;;2.40;;
16033;SDS011;8121;51.418;6.998;2022-07-03T06:22:08;5.10;;;3.70;;
16033;SDS011;8121;51.418;6.998;2022-07-03T06:32:11;3.30;;;2.90;;
16033;SDS011;8121;51.418;6.998;2022-07-03T06:42:12;7.23;;;3.63;;
16033;SDS011;8121;51.418;6.998;2022-07-03T06:52:16;4.33;;;2.23;;
16033;SDS011;8121;51.418;6.998;2022-07-03T07:02:17;6.00;;;2.53;;
16033;SDS011;8121;51.418;6.998;2022-07-03T07:12:20;4.73;;;2.97;;
16033;SDS011;8121;51.418;6.998;2022-07-03T07:22:22;5.87;;;3.03;;
16033;SDS011;8121;51.418;6.998;2022-07-03T07:32:26;5.77;;;2.37;;
16033;SDS011;8121;51.418;6.998;2022-07-03T07:42:28;2.37;;;2.17;;
16033;SDS011;8121;51.418;6.998;2022-07-03T07:52:31;2.60;;;2.30;;
16033;SDS011;8121;51.418;6.998;2022-07-03T08:02:33;3.10;;;1.90;;
16033;SDS011;8121;51.418;6.998;2022-07-03T08:12:54;2.43;;;1.47;;
16033;SDS011;8121;51.418;6.998;2022-07-03T08:22:56;3.67;;;1.20;;
16033;SDS011;8121;51.418;6.998;2022-07-03T08:32:59;3.10;;;1.60;;
16033;SDS011;8121;51.418;6.998;2022-07-03T08:43:01;2.63;;;2.00;;
16033;SDS011;8121;51.418;6.998;2022-07-03T08:53:05;3.57;;;1.53;;
16033;SDS011;8121;51.418;6.998;2022-07-03T09:03:09;1.53;;;1.20;;
16033;SDS011;8121;51.418;6.998;2022-07-03T09:13:19;5.87;;;1.80;;
16033;SDS011;8121;51.418;6.998;2022-07-03T09:23:24;2.83;;;1.33;;
16033;SDS011;8121;51.418;6.998;2022-07-03T09:33:29;2.83;;;1.47;;
16033;SDS011;8121;51.418;6.998;2022-07-03T09:43:34;3.17;;;1.27;;
16033;SDS011;8121;51.418;6.998;2022-07-03T09:53:45;2.50;;;1.73;;
16033;SDS011;8121;51.418;6.998;2022-07-03T10:03:51;1.10;;;0.83;;
16033;SDS011;8121;51.418;6.998;2022-07-03T10:13:54;0.83;;;0.83;;
16033;SDS011;8121;51.418;6.998;2022-07-03T10:23:56;1.20;;;1.00;;
16033;SDS011;8121;51.418;6.998;2022-07-03T10:33:59;1.67;;;1.13;;
16033;SDS011;8121;51.418;6.998;2022-07-03T10:44:02;2.90;;;1.83;;
16033;SDS011;8121;51.418;6.998;2022-07-03T10:54:24;3.07;;;1.70;;
16033;SDS011;8121;51.418;6.998;2022-07-03T11:04:26;1.57;;;0.93;;
16033;SDS011;8121;51.418;6.998;2022-07-03T11:25:36;1.93;;;1.00;;
16033;SDS011;8121;51.418;6.998;2022-07-03T11:35:44;1.60;;;1.50;;
16033;SDS011;8121;51.418;6.998;2022-07-03T11:45:52;1.47;;;0.90;;
16033;SDS011;8121;51.418;6.998;2022-07-03T11:55:56;0.80;;;0.70;;
16033;SDS011;8121;51.418;6.998;2022-07-03T12:05:59;0.70;;;0.70;;
16033;SDS011;8121;51.418;6.998;2022-07-03T12:16:07;1.33;;;1.03;;
16033;SDS011;8121;51.418;6.998;2022-07-03T12:26:13;3.73;;;1.67;;
16033;SDS011;8121;51.418;6.998;2022-07-03T12:36:16;1.50;;;1.40;;
16033;SDS011;8121;51.418;6.998;2022-07-03T12:46:22;2.80;;;1.00;;
16033;SDS011;8121;51.418;6.998;2022-07-03T12:56:26;0.90;;;0.83;;
16033;SDS011;8121;51.418;6.998;2022-07-03T13:06:30;1.53;;;0.90;;
16033;SDS011;8121;51.418;6.998;2022-07-03T13:16:37;1.40;;;1.17;;
16033;SDS011;8121;51.418;6.998;2022-07-03T13:26:41;0.70;;;0.60;;
16033;SDS011;8121;51.418;6.998;2022-07-03T13:36:44;0.83;;;0.83;;
16033;SDS011;8121;51.418;6.998;2022-07-03T13:46:46;1.80;;;0.90;;
16033;SDS011;8121;51.418;6.998;2022-07-03T13:56:52;1.67;;;0.90;;
16033;SDS011;8121;51.418;6.998;2022-07-03T14:06:57;1.47;;;0.67;;
16033;SDS011;8121;51.418;6.998;2022-07-03T14:17:01;3.53;;;0.73;;
16033;SDS011;8121;51.418;6.998;2022-07-03T14:27:03;0.73;;;0.73;;
16033;SDS011;8121;51.418;6.998;2022-07-03T14:37:37;2.70;;;1.27;;
16033;SDS011;8121;51.418;6.998;2022-07-03T14:47:41;1.27;;;0.80;;
16033;SDS011;8121;51.418;6.998;2022-07-03T14:57:49;1.23;;;0.70;;
16033;SDS011;8121;51.418;6.998;2022-07-03T15:08:03;1.00;;;0.83;;
16033;SDS011;8121;51.418;6.998;2022-07-03T15:18:13;0.70;;;0.60;;
16033;SDS011;8121;51.418;6.998;2022-07-03T15:28:23;1.20;;;1.10;;
16033;SDS011;8121;51.418;6.998;2022-07-03T15:38:38;1.30;;;1.00;;
16033;SDS011;8121;51.418;6.998;2022-07-03T15:48:49;2.07;;;0.80;;
16033;SDS011;8121;51.418;6.998;2022-07-03T15:59:06;2.03;;;1.00;;
16033;SDS011;8121;51.418;6.998;2022-07-03T16:09:12;3.47;;;1.00;;
16033;SDS011;8121;51.418;6.998;2022-07-03T16:19:22;1.80;;;1.00;;
16033;SDS011;8121;51.418;6.998;2022-07-03T16:29:27;1.00;;;0.60;;
16033;SDS011;8121;51.418;6.998;2022-07-03T16:49:44;1.27;;;0.93;;
16033;SDS011;8121;51.418;6.998;2022-07-03T16:59:50;3.37;;;0.90;;
16033;SDS011;8121;51.418;6.998;2022-07-03T17:10:01;0.70;;;0.57;;
16033;SDS011;8121;51.418;6.998;2022-07-03T17:20:05;2.07;;;1.00;;
16033;SDS011;8121;51.418;6.998;2022-07-03T17:30:19;1.07;;;0.60;;
16033;SDS011;8121;51.418;6.998;2022-07-03T17:40:21;0.80;;;0.60;;
16033;SDS011;8121;51.418;6.998;2022-07-03T17:50:25;1.20;;;0.80;;
16033;SDS011;8121;51.418;6.998;2022-07-03T18:00:29;2.07;;;1.20;;
16033;SDS011;8121;51.418;6.998;2022-07-03T18:10:40;4.30;;;1.77;;
16033;SDS011;8121;51.418;6.998;2022-07-03T18:20:43;3.43;;;1.40;;
16033;SDS011;8121;51.418;6.998;2022-07-03T18:30:47;0.80;;;0.70;;
16033;SDS011;8121;51.418;6.998;2022-07-03T18:40:48;1.03;;;0.77;;
16033;SDS011;8121;51.418;6.998;2022-07-03T18:50:52;0.80;;;0.80;;
16033;SDS011;8121;51.418;6.998;2022-07-03T19:00:53;0.80;;;0.80;;
16033;SDS011;8121;51.418;6.998;2022-07-03T19:11:00;2.80;;;0.87;;
16033;SDS011;8121;51.418;6.998;2022-07-03T19:21:03;0.80;;;0.70;;
16033;SDS011;8121;51.418;6.998;2022-07-03T19:31:07;1.10;;;0.63;;
16033;SDS011;8121;51.418;6.998;2022-07-03T19:41:09;1.27;;;0.90;;
16033;SDS011;8121;51.418;6.998;2022-07-03T19:51:12;3.43;;;0.97;;
16033;SDS011;8121;51.418;6.998;2022-07-03T20:01:15;0.93;;;0.60;;
16033;SDS011;8121;51.418;6.998;2022-07-03T20:11:22;7.33;;;0.87;;
16033;SDS011;8121;51.418;6.998;2022-07-03T20:21:54;2.40;;;0.70;;
16033;SDS011;8121;51.418;6.998;2022-07-03T20:31:57;1.60;;;0.60;;
16033;SDS011;8121;51.418;6.998;2022-07-03T20:42:02;4.13;;;0.90;;
16033;SDS011;8121;51.418;6.998;2022-07-03T20:52:06;0.90;;;0.70;;
16033;SDS011;8121;51.418;6.998;2022-07-03T21:02:08;1.27;;;0.53;;
16033;SDS011;8121;51.418;6.998;2022-07-03T21:12:12;0.70;;;0.50;;
16033;SDS011;8121;51.418;6.998;2022-07-03T21:22:14;0.70;;;0.50;;
16033;SDS011;8121;51.418;6.998;2022-07-03T21:32:18;1.23;;;0.50;;
16033;SDS011;8121;51.418;6.998;2022-07-03T21:42:20;0.83;;;0.50;;
16033;SDS011;8121;51.418;6.998;2022-07-03T21:52:25;1.13;;;0.70;;
16033;SDS011;8121;51.418;6.998;2022-07-03T22:02:31;1.10;;;0.73;;
16033;SDS011;8121;51.418;6.998;2022-07-03T22:12:35;1.07;;;0.63;;
16033;SDS011;8121;51.418;6.998;2022-07-03T22:32:56;0.60;;;0.50;;
16033;SDS011;8121;51.418;6.998;2022-07-03T22:43:03;0.73;;;0.70;;
16033;SDS011;8121;51.418;6.998;2022-07-03T22:53:23;0.80;;;0.70;;
16033;SDS011;8121;51.418;6.998;2022-07-03T23:03:33;2.30;;;2.00;;
16033;SDS011;8121;51.418;6.998;2022-07-03T23:14:04;0.70;;;0.70;;
16033;SDS011;8121;51.418;6.998;2022-07-03T23:35:05;2.40;;;1.10;;
16033;SDS011;8121;51.418;6.998;2022-07-03T23:45:07;1.30;;;0.70;;
16033;SDS011;8121;51.418;6.998;2022-07-03T23:55:11;0.70;;;0.60;;
